Time;durP1;ratioP1;P1;durP2;ratioP2;P2;SDS_P1;SDS_P2;PMS_P1;PMS_P2;Temp;Humidity;BMP_temperature;BMP_pressure;BME280_temperature;BME280_humidity;BME280_pressure;Samples;Min_cycle;Max_cycle;Signal;HPM_P1;HPM_P2
2023/09/28 00:01:20;;;;;;;4.38;1.48;;;;;;;26.48;43.42;101076.38;5012525;28;20030;-63
2023/09/28 00:03:47;;;;;;;3.15;1.65;;;;;;;26.50;43.46;101090.72;5014044;28;20042;-62
2023/09/28 00:06:13;;;;;;;4.18;2.05;;;;;;;26.53;43.19;101101.25;5013640;28;20029;-63
2023/09/28 00:08:38;;;;;;;3.22;1.50;;;;;;;26.53;43.36;101091.13;5013705;28;20053;-62
2023/09/28 00:11:05;;;;;;;2.95;1.58;;;;;;;26.56;43.63;101104.41;5013696;28;20054;-63
2023/09/28 00:13:30;;;;;;;3.20;1.27;;;;;;;26.60;43.52;101110.31;5012438;28;20037;-62
2023/09/28 00:15:56;;;;;;;2.90;1.38;;;;;;;26.63;43.47;101103.50;5012399;28;20030;-62
2023/09/28 00:18:21;;;;;;;3.50;1.08;;;;;;;26.67;43.47;101102.81;5013730;28;20050;-63
2023/09/28 00:20:47;;;;;;;3.95;1.95;;;;;;;26.71;42.83;101104.03;5013319;28;20076;-63
2023/09/28 00:23:12;;;;;;;1.83;1.50;;;;;;;26.76;43.15;101108.84;5013487;28;20034;-62
2023/09/28 00:25:38;;;;;;;2.58;1.30;;;;;;;26.81;42.73;101109.03;5013303;28;20026;-62
2023/09/28 00:28:05;;;;;;;3.00;1.65;;;;;;;26.83;43.37;101110.47;5013440;28;20494;-62
2023/09/28 00:30:31;;;;;;;3.35;1.70;;;;;;;26.86;43.00;101115.53;5013361;28;20053;-62
2023/09/28 00:32:56;;;;;;;1.83;1.30;;;;;;;26.89;42.89;101122.47;5012599;28;20502;-63
2023/09/28 00:35:23;;;;;;;4.05;1.95;;;;;;;26.92;43.05;101119.25;5013186;28;20513;-62
2023/09/28 00:37:49;;;;;;;4.80;1.85;;;;;;;26.94;42.64;101120.72;5012052;28;20042;-64
2023/09/28 00:42:47;;;;;;;2.75;1.27;;;;;;;26.96;42.54;101124.09;5013325;28;20405;-62
2023/09/28 00:45:13;;;;;;;3.80;1.67;;;;;;;26.99;42.75;101107.16;5011843;28;20026;-63
2023/09/28 00:47:38;;;;;;;6.82;1.73;;;;;;;27.02;42.26;101112.19;5013284;28;20045;-63
2023/09/28 00:50:09;;;;;;;2.45;1.30;;;;;;;27.02;42.95;101100.34;5013802;28;20469;-63
2023/09/28 00:52:35;;;;;;;2.50;1.70;;;;;;;27.03;42.79;101105.59;5013139;28;20088;-62
2023/09/28 00:55:00;;;;;;;1.92;1.10;;;;;;;27.07;42.39;101120.59;5013118;28;20529;-62
2023/09/28 00:57:27;;;;;;;6.25;1.80;;;;;;;27.08;43.02;101129.69;5011908;28;20039;-63
2023/09/28 00:59:54;;;;;;;2.03;1.58;;;;;;;27.08;42.96;101138.75;5013079;28;20044;-62
2023/09/28 01:02:19;;;;;;;3.53;1.52;;;;;;;27.10;42.13;101135.78;5013250;28;20038;-62
2023/09/28 01:04:44;;;;;;;2.03;1.30;;;;;;;27.09;42.76;101132.19;5013013;28;20413;-62
2023/09/28 01:07:12;;;;;;;4.22;1.45;;;;;;;27.09;42.75;101145.94;5012080;28;20038;-63
2023/09/28 01:09:38;;;;;;;3.03;1.70;;;;;;;27.09;42.94;101143.19;5013243;28;20178;-62
2023/09/28 01:12:06;;;;;;;3.08;1.23;;;;;;;27.08;43.08;101138.75;5012923;28;20129;-63
2023/09/28 01:14:33;;;;;;;1.73;1.40;;;;;;;27.09;43.15;101145.09;5012860;28;20080;-64
2023/09/28 01:16:58;;;;;;;3.53;1.30;;;;;;;27.07;43.00;101141.75;5012263;28;20057;-62
2023/09/28 01:19:23;;;;;;;3.72;1.33;;;;;;;27.08;43.25;101137.94;5012114;28;20065;-62
2023/09/28 01:21:50;;;;;;;3.17;1.55;;;;;;;27.09;42.95;101139.59;5013166;28;20088;-63
2023/09/28 01:24:16;;;;;;;6.18;2.28;;;;;;;27.07;42.77;101128.00;5013411;28;20037;-63
2023/09/28 01:26:41;;;;;;;8.73;1.67;;;;;;;27.05;42.32;101132.88;5012794;28;20037;-63
2023/09/28 01:29:06;;;;;;;4.40;1.60;;;;;;;27.03;43.13;101135.84;5012148;28;20038;-63
2023/09/28 01:31:32;;;;;;;2.13;1.40;;;;;;;27.02;43.30;101139.69;5014091;28;20557;-64
2023/09/28 01:33:58;;;;;;;3.75;2.15;;;;;;;26.99;42.93;101137.41;5011939;28;20040;-63
2023/09/28 01:36:23;;;;;;;3.03;1.52;;;;;;;26.97;43.42;101142.25;5012655;28;20485;-62
2023/09/28 01:38:55;;;;;;;1.85;1.35;;;;;;;26.95;42.88;101138.06;5012619;28;20430;-62
2023/09/28 01:41:20;;;;;;;2.20;1.45;;;;;;;26.92;42.91;101144.88;5012241;28;20054;-63
2023/09/28 01:43:46;;;;;;;3.25;1.80;;;;;;;26.88;43.38;101151.06;5011760;28;20066;-63
2023/09/28 01:46:12;;;;;;;3.47;1.67;;;;;;;26.82;43.02;101154.72;4999224;28;20458;-63
2023/09/28 01:48:37;;;;;;;4.13;1.45;;;;;;;26.77;42.82;101147.13;5017022;28;20038;-62
2023/09/28 01:51:03;;;;;;;4.85;2.20;;;;;;;26.75;43.45;101152.00;5015176;28;20041;-62
2023/09/28 01:53:28;;;;;;;7.22;1.80;;;;;;;26.72;43.18;101144.19;5015018;28;20121;-62
2023/09/28 01:55:54;;;;;;;5.00;1.80;;;;;;;26.68;43.38;101142.97;5016130;28;20026;-63
2023/09/28 01:58:19;;;;;;;4.30;2.08;;;;;;;26.67;42.89;101149.53;5016344;28;20037;-62
2023/09/28 02:00:46;;;;;;;2.78;1.70;;;;;;;26.65;43.03;101151.69;5017018;28;20036;-63
2023/09/28 02:03:11;;;;;;;4.85;2.10;;;;;;;26.61;43.58;101151.28;5015841;28;20033;-62
2023/09/28 02:05:37;;;;;;;5.15;1.85;;;;;;;26.61;43.67;101153.19;5016671;28;20593;-62
2023/09/28 02:08:03;;;;;;;8.13;2.03;;;;;;;26.58;43.74;101153.63;5017478;28;20564;-63
2023/09/28 02:10:28;;;;;;;3.78;2.10;;;;;;;26.55;43.62;101159.59;5016535;28;20056;-63
2023/09/28 02:12:55;;;;;;;3.97;1.75;;;;;;;26.53;43.73;101158.97;5017883;28;20414;-62
2023/09/28 02:15:22;;;;;;;5.97;1.73;;;;;;;26.49;43.70;101155.00;5017793;28;20038;-62
2023/09/28 02:17:48;;;;;;;3.85;2.08;;;;;;;26.46;43.55;101155.47;5017836;28;20124;-63
2023/09/28 02:20:22;;;;;;;6.07;1.95;;;;;;;26.44;43.48;101157.56;5016595;28;20064;-63
2023/09/28 02:22:47;;;;;;;7.57;1.60;;;;;;;26.39;43.35;101155.50;5011566;28;20143;-64
2023/09/28 02:25:39;;;;;;;2.80;1.80;;;;;;;26.37;43.96;101162.31;5016867;28;20493;-62
2023/09/28 02:28:04;;;;;;;3.15;1.48;;;;;;;26.34;43.37;101173.72;5015081;28;20037;-62
2023/09/28 02:30:30;;;;;;;2.72;1.65;;;;;;;26.33;43.44;101174.78;5015048;28;20030;-62
2023/09/28 02:32:55;;;;;;;3.13;1.83;;;;;;;26.30;43.41;101175.25;5016360;28;20038;-62
2023/09/28 02:35:21;;;;;;;7.45;2.05;;;;;;;26.28;43.35;101180.13;5016503;28;20490;-64
2023/09/28 02:37:48;;;;;;;3.88;1.80;;;;;;;26.26;43.67;101185.00;5016201;28;20037;-63
2023/09/28 02:40:15;;;;;;;4.60;1.90;;;;;;;26.25;43.79;101186.06;5015644;28;20030;-62
2023/09/28 02:42:43;;;;;;;5.13;1.40;;;;;;;26.24;44.00;101190.75;5015831;28;20139;-62
2023/09/28 02:45:12;;;;;;;9.75;2.53;;;;;;;26.21;43.71;101191.19;5015800;28;20038;-62
2023/09/28 02:47:40;;;;;;;2.25;1.83;;;;;;;26.19;44.17;101193.28;5015638;28;20199;-62
2023/09/28 02:50:09;;;;;;;5.18;2.05;;;;;;;26.20;43.88;101191.38;5015740;28;20052;-62
2023/09/28 02:52:38;;;;;;;4.20;1.60;;;;;;;26.19;44.02;101196.03;5015453;28;20050;-63
2023/09/28 02:55:07;;;;;;;3.53;1.73;;;;;;;26.18;44.01;101199.00;5013473;28;20033;-63
2023/09/28 02:57:33;;;;;;;2.08;1.55;;;;;;;26.17;44.02;101211.06;5014997;28;20046;-62
2023/09/28 02:59:59;;;;;;;2.55;1.60;;;;;;;26.15;44.05;101207.69;5014010;28;20038;-62
2023/09/28 03:02:25;;;;;;;2.92;1.63;;;;;;;26.13;44.32;101216.09;5013797;28;20153;-62
2023/09/28 03:04:50;;;;;;;6.57;2.00;;;;;;;26.12;43.97;101213.59;5014917;28;20053;-62
2023/09/28 03:07:16;;;;;;;3.28;1.95;;;;;;;26.12;44.41;101208.09;5014932;28;20120;-62
2023/09/28 03:09:42;;;;;;;2.92;1.80;;;;;;;26.10;44.38;101215.72;5013364;28;20030;-62
2023/09/28 03:12:07;;;;;;;1.88;1.60;;;;;;;26.10;44.49;101218.47;5013416;28;20041;-63
2023/09/28 03:14:34;;;;;;;6.35;1.60;;;;;;;26.10;44.20;101218.47;5015939;28;20041;-63
2023/09/28 03:16:59;;;;;;;5.13;2.13;;;;;;;26.08;44.39;101215.09;5013454;28;20053;-62
2023/09/28 03:19:25;;;;;;;3.83;2.17;;;;;;;26.07;44.42;101218.91;5013532;28;20058;-63
2023/09/28 03:21:50;;;;;;;3.33;1.83;;;;;;;26.06;44.35;101207.09;5013276;28;20406;-63
2023/09/28 03:24:16;;;;;;;2.65;2.15;;;;;;;26.05;44.25;101210.88;5014476;28;20087;-63
2023/09/28 03:26:42;;;;;;;5.68;1.92;;;;;;;26.01;44.32;101224.22;5014248;28;20502;-63
2023/09/28 03:29:07;;;;;;;3.75;1.98;;;;;;;26.00;44.42;101222.53;5014439;28;20042;-63
2023/09/28 03:31:34;;;;;;;6.25;2.00;;;;;;;25.98;44.76;101232.91;5013008;28;20038;-62
2023/09/28 03:33:59;;;;;;;5.00;2.30;;;;;;;25.94;44.86;101222.56;5012845;28;20461;-63
2023/09/28 03:36:25;;;;;;;5.05;1.70;;;;;;;25.94;44.94;101239.88;5014478;28;20049;-62
2023/09/28 03:38:50;;;;;;;5.95;1.85;;;;;;;25.93;44.81;101227.25;5014278;28;20042;-64
2023/09/28 03:41:17;;;;;;;1.83;1.60;;;;;;;25.92;45.22;101236.53;5014270;28;20409;-62
2023/09/28 03:43:43;;;;;;;3.47;2.13;;;;;;;25.89;45.10;101225.97;5014294;28;20038;-62
2023/09/28 03:46:09;;;;;;;2.67;1.42;;;;;;;25.87;45.09;101239.09;5014209;28;20473;-62
2023/09/28 03:48:34;;;;;;;2.30;1.60;;;;;;;25.87;44.93;101247.34;5014199;28;20042;-62
2023/09/28 03:51:00;;;;;;;6.07;2.35;;;;;;;25.85;45.34;101254.91;5012868;28;20084;-62
2023/09/28 03:53:26;;;;;;;6.60;1.85;;;;;;;25.85;45.38;101248.63;5014131;28;20553;-62
2023/09/28 03:55:52;;;;;;;5.88;2.08;;;;;;;25.85;45.13;101248.63;5014503;28;20060;-63
2023/09/28 03:58:17;;;;;;;4.93;1.80;;;;;;;25.84;45.21;101257.91;5014442;28;20571;-62
2023/09/28 04:00:43;;;;;;;3.22;2.13;;;;;;;25.81;45.90;101259.19;5014561;28;20382;-63
2023/09/28 04:03:08;;;;;;;4.10;2.10;;;;;;;25.81;45.63;101259.19;5014690;28;20037;-62
2023/09/28 04:05:33;;;;;;;3.00;1.88;;;;;;;25.80;45.13;101254.75;5014073;28;20041;-62
2023/09/28 04:07:59;;;;;;;3.97;1.83;;;;;;;25.79;45.28;101264.06;5013808;28;20055;-62
2023/09/28 04:10:24;;;;;;;3.13;1.83;;;;;;;25.79;45.63;101266.81;5013884;28;20124;-62
2023/09/28 04:12:50;;;;;;;8.55;3.30;;;;;;;25.76;45.44;101263.66;5014704;28;20037;-62
2023/09/28 04:15:16;;;;;;;3.38;2.08;;;;;;;25.74;45.58;101258.34;5014419;28;20437;-62
2023/09/28 04:17:41;;;;;;;3.67;2.47;;;;;;;25.75;45.74;101257.31;5013078;28;20405;-62
2023/09/28 04:20:09;;;;;;;7.82;2.50;;;;;;;25.72;45.56;101249.50;5014125;28;20525;-62
2023/09/28 04:22:35;;;;;;;2.90;1.73;;;;;;;25.73;45.59;101247.59;5012841;28;20042;-63
2023/09/28 04:25:01;;;;;;;5.80;1.90;;;;;;;25.72;45.72;101246.75;5014112;28;20029;-62
2023/09/28 04:27:26;;;;;;;3.45;2.20;;;;;;;25.71;45.40;101247.81;5013511;28;20057;-62
2023/09/28 04:29:52;;;;;;;2.97;1.95;;;;;;;25.71;45.62;101252.47;5012220;28;20057;-62
2023/09/28 04:32:17;;;;;;;2.53;1.70;;;;;;;25.67;45.55;101257.56;5013044;28;20528;-62
2023/09/28 04:34:42;;;;;;;5.50;2.08;;;;;;;25.66;45.77;101266.00;5012068;28;20040;-63
2023/09/28 04:37:08;;;;;;;5.57;2.20;;;;;;;25.63;45.42;101266.44;5013441;28;20100;-62
2023/09/28 04:39:34;;;;;;;4.47;2.10;;;;;;;25.60;46.06;101280.59;5012125;28;20038;-62
2023/09/28 04:41:59;;;;;;;8.10;3.65;;;;;;;25.55;45.53;101283.97;5013355;28;20125;-62
2023/09/28 04:44:24;;;;;;;3.40;2.72;;;;;;;25.50;45.58;101275.56;5012212;28;20108;-62
2023/09/28 04:46:50;;;;;;;12.15;4.40;;;;;;;25.44;46.00;101292.84;5013255;28;20482;-62
2023/09/28 04:49:17;;;;;;;3.70;2.00;;;;;;;25.39;46.27;101295.41;5013209;28;20112;-62
2023/09/28 04:51:42;;;;;;;5.95;2.40;;;;;;;25.31;45.94;101292.88;5012014;28;20033;-62
2023/09/28 04:54:08;;;;;;;5.20;1.92;;;;;;;25.26;46.01;101301.75;5013142;28;20048;-62
2023/09/28 04:56:33;;;;;;;4.30;2.05;;;;;;;25.20;46.08;101308.09;5013656;28;20038;-62
2023/09/28 04:58:59;;;;;;;3.22;1.70;;;;;;;25.15;45.88;101305.16;5013452;28;20040;-62
2023/09/28 05:01:25;;;;;;;3.85;2.40;;;;;;;25.11;45.90;101308.53;5012871;28;20038;-62
2023/09/28 05:03:50;;;;;;;7.70;2.38;;;;;;;25.07;45.68;101305.34;4995386;28;20058;-62
2023/09/28 05:06:16;;;;;;;6.82;2.33;;;;;;;25.04;46.25;101302.22;5011470;28;20038;-62
2023/09/28 05:08:41;;;;;;;4.45;2.38;;;;;;;25.00;46.00;101300.94;5012061;28;20057;-63
2023/09/28 05:11:07;;;;;;;4.30;2.35;;;;;;;24.93;45.91;101303.66;5011481;28;20046;-63
2023/09/28 05:13:33;;;;;;;4.82;2.17;;;;;;;24.92;46.10;101307.47;5012945;28;20073;-63
2023/09/28 05:15:58;;;;;;;5.32;2.38;;;;;;;24.86;46.30;101309.16;5012797;28;20113;-62
2023/09/28 05:18:23;;;;;;;5.75;2.33;;;;;;;24.89;46.59;101316.97;5013991;28;20030;-63
2023/09/28 05:20:50;;;;;;;3.45;2.20;;;;;;;24.86;46.33;101317.41;5016996;28;20057;-62
2023/09/28 05:23:16;;;;;;;4.35;2.20;;;;;;;24.86;46.84;101320.13;5015816;28;20034;-61
2023/09/28 05:25:42;;;;;;;6.75;2.38;;;;;;;24.86;46.53;101319.28;5017233;28;20041;-62
2023/09/28 05:28:07;;;;;;;7.82;2.50;;;;;;;24.87;46.71;101319.06;5016891;28;20422;-61
2023/09/28 05:30:33;;;;;;;10.20;2.80;;;;;;;24.88;46.67;101319.91;5016242;28;20037;-62
2023/09/28 05:32:58;;;;;;;7.25;3.25;;;;;;;24.87;46.73;101335.50;5016152;28;20049;-62
2023/09/28 05:35:23;;;;;;;5.85;3.05;;;;;;;24.90;46.81;101335.09;5016266;28;20501;-62
2023/09/28 05:37:50;;;;;;;5.18;2.95;;;;;;;24.90;46.93;101335.09;5016356;28;20037;-63
2023/09/28 05:40:16;;;;;;;8.52;2.65;;;;;;;24.89;46.78;101338.91;5016669;28;20033;-62
2023/09/28 05:42:41;;;;;;;4.65;3.13;;;;;;;24.90;47.01;101342.50;5015647;28;20053;-63
2023/09/28 05:45:08;;;;;;;6.10;2.63;;;;;;;24.93;46.83;101349.44;5015439;28;20502;-62
2023/09/28 05:47:34;;;;;;;6.97;2.33;;;;;;;24.95;47.27;101350.94;5015220;28;20038;-63
2023/09/28 05:50:07;;;;;;;4.57;2.47;;;;;;;24.96;47.55;101349.84;5016272;28;20030;-63
2023/09/28 05:52:33;;;;;;;4.63;2.47;;;;;;;24.98;46.58;101347.78;5016769;28;20034;-62
2023/09/28 05:54:58;;;;;;;6.57;2.67;;;;;;;25.00;47.42;101345.66;5016592;28;20100;-63
2023/09/28 05:57:24;;;;;;;3.55;2.20;;;;;;;25.02;47.18;101354.50;5016556;28;20030;-63
2023/09/28 05:59:49;;;;;;;4.22;2.65;;;;;;;25.04;47.53;101357.06;5016348;28;20501;-62
2023/09/28 06:02:15;;;;;;;4.38;2.60;;;;;;;25.06;47.28;101371.38;5016265;28;20030;-64
2023/09/28 06:04:43;;;;;;;5.82;3.05;;;;;;;25.09;47.13;101365.47;5016272;28;20041;-62
2023/09/28 06:07:11;;;;;;;7.30;3.00;;;;;;;25.11;47.28;101374.31;5016030;28;20046;-62
2023/09/28 06:09:37;;;;;;;4.30;2.38;;;;;;;25.13;47.18;101374.94;5015898;28;20038;-63
2023/09/28 06:12:03;;;;;;;5.93;2.60;;;;;;;25.16;47.42;101378.13;5015682;28;20034;-62
2023/09/28 06:14:29;;;;;;;8.77;2.92;;;;;;;25.20;47.50;101373.91;5015719;28;20037;-62
2023/09/28 06:16:54;;;;;;;6.18;2.88;;;;;;;25.25;47.47;101373.28;5015706;28;20562;-63
2023/09/28 06:19:20;;;;;;;6.15;2.53;;;;;;;25.29;47.48;101377.28;5014505;28;20030;-63
2023/09/28 06:21:45;;;;;;;6.18;2.50;;;;;;;25.37;47.32;101385.31;5015647;28;20030;-63
2023/09/28 06:24:11;;;;;;;9.63;2.80;;;;;;;25.39;47.25;101383.19;5015598;28;20401;-65
2023/09/28 06:26:37;;;;;;;6.25;2.60;;;;;;;25.46;47.25;101389.53;5015455;28;20069;-64
2023/09/28 06:29:03;;;;;;;3.58;2.80;;;;;;;25.51;47.38;101392.50;5016020;28;20029;-62
2023/09/28 06:31:28;;;;;;;7.22;2.70;;;;;;;25.59;46.84;101389.53;5013998;28;20049;-62
2023/09/28 06:33:54;;;;;;;10.70;2.38;;;;;;;25.66;47.35;101395.84;5015510;28;20053;-63
2023/09/28 06:36:20;;;;;;;6.55;2.55;;;;;;;25.71;46.97;101393.28;5014066;28;20064;-65
2023/09/28 06:38:47;;;;;;;6.10;2.60;;;;;;;25.88;47.20;101416.47;5015351;28;20042;-62
2023/09/28 06:41:13;;;;;;;8.73;2.80;;;;;;;25.93;47.00;101405.72;5015342;28;20042;-63
2023/09/28 06:43:39;;;;;;;6.82;2.90;;;;;;;25.96;46.92;101413.50;5015380;28;20045;-64
2023/09/28 06:46:04;;;;;;;4.90;2.50;;;;;;;26.08;46.63;101421.06;5013993;28;20038;-63
2023/09/28 06:48:30;;;;;;;8.98;3.03;;;;;;;26.19;47.17;101423.16;5015422;28;20117;-64
2023/09/28 06:50:59;;;;;;;2.83;2.20;;;;;;;26.33;46.63;101431.16;5015474;28;20397;-63
2023/09/28 06:53:25;;;;;;;6.32;3.08;;;;;;;26.45;46.83;101429.41;5015167;28;20060;-63
2023/09/28 06:55:51;;;;;;;6.18;2.88;;;;;;;26.56;46.60;101427.88;5015042;28;20053;-63
2023/09/28 06:58:17;;;;;;;5.60;2.63;;;;;;;26.67;46.12;101435.44;5014959;28;20562;-63
2023/09/28 07:00:44;;;;;;;6.18;2.35;;;;;;;26.83;46.06;101425.88;5014834;28;20398;-63
2023/09/28 07:03:09;;;;;;;6.55;2.58;;;;;;;26.95;45.64;101424.09;5013514;28;20478;-63
2023/09/28 07:05:35;;;;;;;4.53;2.35;;;;;;;27.10;45.71;101433.72;5014883;28;20037;-63
2023/09/28 07:08:03;;;;;;;6.43;2.38;;;;;;;27.25;46.26;101440.81;5014795;28;20020;-62
2023/09/28 07:10:28;;;;;;;4.32;2.60;;;;;;;27.41;45.34;101451.28;4997388;28;20113;-63
2023/09/28 07:12:54;;;;;;;4.75;2.42;;;;;;;27.58;46.13;101446.91;5014482;28;20109;-63
2023/09/28 07:15:22;;;;;;;5.45;2.20;;;;;;;27.76;45.52;101455.19;5015046;28;20033;-63
2023/09/28 07:17:47;;;;;;;5.97;2.38;;;;;;;27.92;45.22;101449.09;5013847;28;20022;-63
2023/09/28 07:20:14;;;;;;;7.85;2.47;;;;;;;28.05;45.42;101465.53;5013268;28;20117;-63
2023/09/28 07:22:41;;;;;;;4.43;2.00;;;;;;;28.00;45.84;101467.25;5013744;28;20370;-64
2023/09/28 07:25:09;;;;;;;5.82;2.42;;;;;;;28.04;45.76;101463.84;5014762;28;20030;-63
2023/09/28 07:27:34;;;;;;;5.78;2.35;;;;;;;28.14;45.07;101458.63;5014398;28;20026;-63
2023/09/28 07:30:05;;;;;;;8.38;2.53;;;;;;;28.11;45.38;101453.56;5013574;28;20033;-63
2023/09/28 07:32:30;;;;;;;9.27;2.53;;;;;;;28.17;45.41;101447.16;5013335;28;20448;-63
2023/09/28 07:34:56;;;;;;;5.07;2.22;;;;;;;28.00;45.24;101447.97;5014879;28;20486;-63
2023/09/28 07:37:22;;;;;;;4.93;2.20;;;;;;;28.12;45.36;101449.75;5014991;28;20129;-62
2023/09/28 07:39:48;;;;;;;8.95;3.03;;;;;;;28.41;45.00;101448.16;5014587;28;20042;-63
2023/09/28 07:42:13;;;;;;;3.47;2.30;;;;;;;28.63;43.80;101448.53;5013713;28;20034;-63
2023/09/28 07:44:40;;;;;;;3.13;1.75;;;;;;;28.86;43.62;101445.88;5014723;28;20030;-63
2023/09/28 07:47:09;;;;;;;6.03;2.75;;;;;;;29.07;42.97;101441.72;5014379;28;20064;-63
2023/09/28 07:49:34;;;;;;;5.25;2.15;;;;;;;29.29;43.73;101449.25;5013517;28;20041;-63
2023/09/28 07:52:01;;;;;;;8.63;2.80;;;;;;;29.47;42.92;101456.63;5014703;28;20034;-63
2023/09/28 07:54:26;;;;;;;6.05;2.50;;;;;;;29.64;42.55;101459.50;5014394;28;20045;-63
2023/09/28 07:56:51;;;;;;;6.97;3.40;;;;;;;29.80;42.95;101458.81;5014247;28;20410;-63
2023/09/28 07:59:17;;;;;;;6.45;2.20;;;;;;;29.97;42.33;101470.84;5014413;28;20061;-63
2023/09/28 08:01:42;;;;;;;8.55;2.63;;;;;;;30.17;42.27;101470.44;5013891;28;20041;-64
2023/09/28 08:04:09;;;;;;;9.57;3.40;;;;;;;30.35;42.05;101475.81;5013887;28;20076;-64
2023/09/28 08:06:35;;;;;;;12.50;2.08;;;;;;;30.54;41.88;101480.97;5013830;28;20029;-64
2023/09/28 08:09:01;;;;;;;8.38;2.78;;;;;;;30.75;41.51;101492.47;5012357;28;20430;-63
2023/09/28 08:11:26;;;;;;;7.35;2.08;;;;;;;30.79;41.65;101490.91;5013564;28;20034;-64
2023/09/28 08:13:52;;;;;;;10.65;3.25;;;;;;;30.93;41.11;101486.78;5013521;28;20038;-64
2023/09/28 08:16:17;;;;;;;8.68;2.13;;;;;;;31.03;40.85;101486.97;5013660;28;20038;-64
2023/09/28 08:18:43;;;;;;;7.15;2.05;;;;;;;31.07;40.59;101488.97;5013852;28;20053;-64
2023/09/28 08:21:08;;;;;;;7.93;2.50;;;;;;;31.06;40.24;101492.84;5013845;28;20030;-64
2023/09/28 08:23:34;;;;;;;7.82;2.17;;;;;;;31.25;39.94;101485.16;5013969;28;20056;-64
2023/09/28 08:25:59;;;;;;;8.70;2.10;;;;;;;31.37;39.59;101477.63;5012186;28;20060;-64
2023/09/28 08:28:25;;;;;;;4.95;2.05;;;;;;;31.47;39.28;101482.50;4995817;28;20038;-64
2023/09/28 08:30:53;;;;;;;9.23;2.78;;;;;;;31.58;39.08;101478.81;5013272;28;20037;-64
2023/09/28 08:33:19;;;;;;;5.85;1.95;;;;;;;31.74;38.73;101472.47;5013260;28;20104;-64
2023/09/28 08:35:48;;;;;;;11.38;2.47;;;;;;;31.95;38.29;101479.13;5013418;28;20029;-64
2023/09/28 08:38:15;;;;;;;6.32;1.52;;;;;;;32.09;39.05;101481.31;5011974;28;20038;-65
2023/09/28 08:40:41;;;;;;;6.95;2.40;;;;;;;32.24;37.57;101497.34;5013522;28;20053;-65
2023/09/28 08:43:10;;;;;;;8.30;2.22;;;;;;;32.37;37.88;101494.19;5013189;28;20449;-64
2023/09/28 08:45:38;;;;;;;8.50;2.67;;;;;;;32.53;36.80;101493.28;5013295;28;20038;-64
2023/09/28 08:48:08;;;;;;;8.93;2.45;;;;;;;32.70;36.92;101487.69;5012001;28;20030;-64
2023/09/28 08:50:35;;;;;;;8.68;2.20;;;;;;;32.86;36.22;101492.31;5012069;28;20030;-64
2023/09/28 08:53:02;;;;;;;11.55;1.83;;;;;;;33.02;36.88;101501.69;5012795;28;20482;-64
2023/09/28 08:55:28;;;;;;;10.27;1.75;;;;;;;33.12;36.09;101497.09;5013266;28;20042;-64
2023/09/28 08:57:53;;;;;;;9.27;2.70;;;;;;;33.01;35.94;101505.53;5013187;28;20512;-64
2023/09/28 09:00:23;;;;;;;9.32;2.25;;;;;;;33.08;35.62;101506.22;5011830;28;20034;-64
2023/09/28 09:02:50;;;;;;;8.10;2.30;;;;;;;33.28;36.57;101511.97;5013130;28;20084;-64
2023/09/28 09:05:15;;;;;;;7.70;1.90;;;;;;;33.31;35.72;101517.00;5012972;28;20177;-64
2023/09/28 09:07:44;;;;;;;9.02;1.85;;;;;;;33.23;36.25;101515.53;5011672;28;20125;-64
2023/09/28 09:10:16;;;;;;;12.27;2.00;;;;;;;33.24;35.25;101521.94;5011703;28;20099;-64
2023/09/28 09:12:41;;;;;;;;;;;;;;;33.19;36.28;101533.00;5013301;28;20038;-64
2023/09/28 09:15:07;;;;;;;9.77;1.98;;;;;;;33.28;35.36;101523.91;5013069;28;19963;-64
2023/09/28 09:17:34;;;;;;;10.85;1.88;;;;;;;33.45;34.97;101514.66;5013392;28;20100;-64
2023/09/28 09:20:00;;;;;;;6.85;1.80;;;;;;;33.32;35.45;101508.41;5013405;28;20034;-64
2023/09/28 09:22:27;;;;;;;13.05;2.13;;;;;;;33.66;34.40;101517.38;5013937;28;20550;-64
2023/09/28 09:24:53;;;;;;;9.85;2.13;;;;;;;33.89;34.83;101530.88;5014107;28;20088;-64
2023/09/28 09:27:25;;;;;;;6.30;2.33;;;;;;;34.36;34.10;101524.56;5014101;28;20416;-64
2023/09/28 09:29:50;;;;;;;9.38;3.15;;;;;;;34.95;33.82;101534.28;5015272;28;20099;-65
2023/09/28 09:32:22;;;;;;;5.78;1.60;;;;;;;34.43;34.18;101525.97;5012971;28;20537;-64
2023/09/28 09:34:47;;;;;;;10.80;2.45;;;;;;;34.02;34.17;101523.19;5012934;28;20034;-64
2023/09/28 09:37:13;;;;;;;7.80;1.98;;;;;;;33.73;34.01;101531.03;5012762;28;20084;-64
2023/09/28 09:39:39;;;;;;;8.35;1.88;;;;;;;33.70;34.09;101537.97;5012733;28;20066;-64
2023/09/28 09:42:04;;;;;;;14.85;2.53;;;;;;;33.67;34.18;101538.50;5012868;28;20068;-64
2023/09/28 09:44:30;;;;;;;9.13;2.03;;;;;;;33.85;34.03;101535.31;5011361;28;20062;-63
2023/09/28 09:46:56;;;;;;;5.35;1.60;;;;;;;33.86;33.92;101530.59;5012468;28;20092;-63
2023/09/28 09:49:26;;;;;;;7.82;2.35;;;;;;;33.84;34.67;101528.06;5012529;28;20033;-63
2023/09/28 09:51:52;;;;;;;8.15;1.73;;;;;;;33.84;33.70;101532.78;5011384;28;20041;-63
2023/09/28 09:54:19;;;;;;;10.07;3.00;;;;;;;33.89;33.48;101530.06;4994943;28;20099;-64
2023/09/28 09:56:49;;;;;;;9.98;3.03;;;;;;;34.62;33.72;101531.94;5011380;28;20026;-63
2023/09/28 09:59:16;;;;;;;8.35;2.08;;;;;;;35.39;32.77;101522.72;5012491;28;20026;-63
2023/09/28 10:01:48;;;;;;;6.40;1.80;;;;;;;36.10;32.08;101524.44;5013307;28;20030;-64
2023/09/28 10:04:17;;;;;;;6.80;2.00;;;;;;;36.68;30.65;101519.28;5012534;28;20034;-64
2023/09/28 10:06:47;;;;;;;12.40;2.65;;;;;;;36.71;31.28;101527.88;5015358;28;20283;-64
2023/09/28 10:09:17;;;;;;;9.50;2.10;;;;;;;36.88;31.42;101523.94;5016053;28;20038;-64
2023/09/28 10:11:43;;;;;;;8.48;2.20;;;;;;;36.46;32.03;101524.34;5016478;28;20054;-64
2023/09/28 10:14:10;;;;;;;13.85;2.03;;;;;;;36.24;31.47;101532.25;5014622;28;20105;-66
2023/09/28 10:16:39;;;;;;;8.43;2.55;;;;;;;36.35;31.22;101533.88;5016006;28;20026;-63
2023/09/28 10:19:05;;;;;;;8.82;2.22;;;;;;;36.28;31.31;101530.53;5014545;28;20050;-66
2023/09/28 10:21:38;;;;;;;8.23;1.70;;;;;;;35.53;32.02;101526.66;5014593;28;20485;-66
2023/09/28 10:24:14;;;;;;;7.13;1.70;;;;;;;35.66;31.68;101523.31;5015715;28;20052;-66
2023/09/28 10:26:50;;;;;;;9.48;2.13;;;;;;;35.71;32.04;101512.16;5015647;28;20029;-66
2023/09/28 10:29:20;;;;;;;11.13;2.33;;;;;;;35.70;31.67;101521.66;5015389;28;20034;-65
2023/09/28 10:31:46;;;;;;;6.93;1.90;;;;;;;36.23;31.19;101511.84;5014178;28;20026;-65
2023/09/28 10:34:19;;;;;;;7.55;2.08;;;;;;;36.71;30.92;101511.13;5014337;28;20506;-66
2023/09/28 10:37:05;;;;;;;6.45;1.73;;;;;;;37.11;30.31;101507.31;5015892;28;20030;-66
2023/09/28 10:39:31;;;;;;;8.40;1.70;;;;;;;37.27;30.27;101506.06;5015432;28;20125;-66
2023/09/28 10:42:04;;;;;;;5.32;2.20;;;;;;;37.13;30.03;101505.06;5014498;28;20061;-66
2023/09/28 10:44:31;;;;;;;4.35;1.73;;;;;;;36.66;31.09;101507.53;5015462;28;20034;-66
2023/09/28 10:46:57;;;;;;;9.15;1.80;;;;;;;36.04;31.74;101502.41;5014231;28;20038;-65
2023/09/28 10:49:27;;;;;;;8.68;2.05;;;;;;;36.19;31.09;101506.00;5014026;28;20568;-65
2023/09/28 10:51:56;;;;;;;6.40;1.88;;;;;;;35.52;31.40;101499.88;5014162;28;20057;-67
2023/09/28 10:54:24;;;;;;;10.18;2.05;;;;;;;35.08;31.95;101517.13;5014460;28;20444;-65
2023/09/28 10:56:50;;;;;;;6.63;1.98;;;;;;;34.62;32.59;101512.44;5015566;28;20038;-65
2023/09/28 10:59:17;;;;;;;6.93;1.67;;;;;;;34.37;32.07;101517.88;5015220;28;20033;-65
2023/09/28 11:01:47;;;;;;;10.45;2.13;;;;;;;34.29;32.53;101515.59;5013905;28;20037;-65
2023/09/28 11:04:13;;;;;;;5.85;1.70;;;;;;;34.16;32.49;101513.31;5015151;28;20088;-66
2023/09/28 11:06:42;;;;;;;10.82;1.70;;;;;;;34.02;32.37;101506.50;5013780;28;20034;-65
2023/09/28 11:09:10;;;;;;;9.68;2.10;;;;;;;33.92;33.63;101505.31;5013752;28;20042;-66
2023/09/28 11:11:40;;;;;;;6.93;1.50;;;;;;;33.64;33.11;101502.88;5013399;28;20038;-66
2023/09/28 11:14:06;;;;;;;4.78;2.17;;;;;;;33.42;33.36;101504.88;5013718;28;20528;-65
2023/09/28 11:16:34;;;;;;;8.23;1.75;;;;;;;33.28;33.43;101506.41;5014683;28;20061;-65
2023/09/28 11:19:00;;;;;;;11.35;2.05;;;;;;;33.32;33.72;101508.41;5013589;28;20565;-65
2023/09/28 11:21:26;;;;;;;5.80;2.25;;;;;;;33.14;33.61;101502.41;5014879;28;20034;-66
2023/09/28 11:23:52;;;;;;;8.02;1.77;;;;;;;33.30;33.03;101505.06;5013929;28;20046;-65